createdAt,value
2022-07-29T00:01:48.340Z,2.90
2022-07-29T00:04:18.051Z,2.88
2022-07-29T00:06:48.192Z,2.70
2022-07-29T00:09:18.564Z,2.55
2022-07-29T00:11:47.539Z,2.80
2022-07-29T00:14:16.915Z,2.90
2022-07-29T00:16:46.211Z,2.75
2022-07-29T00:19:15.229Z,3.10
2022-07-29T00:21:44.217Z,2.70
2022-07-29T00:24:13.623Z,2.60
2022-07-29T00:26:44.167Z,2.58
2022-07-29T00:32:02.426Z,2.80
2022-07-29T00:34:48.847Z,2.83
2022-07-29T00:37:17.940Z,2.78
2022-07-29T00:39:46.812Z,3.10
2022-07-29T00:42:17.429Z,2.63
2022-07-29T00:44:46.664Z,2.38
2022-07-29T00:47:15.732Z,2.92
2022-07-29T00:49:45.221Z,2.50
2022-07-29T00:52:17.205Z,2.75
2022-07-29T00:54:46.904Z,2.67
2022-07-29T00:57:17.390Z,2.83
2022-07-29T00:59:46.427Z,2.88
2022-07-29T01:02:15.689Z,2.50
2022-07-29T01:04:47.908Z,2.58
2022-07-29T01:07:18.655Z,2.60
2022-07-29T01:09:49.358Z,2.67
2022-07-29T01:12:25.059Z,2.78
2022-07-29T01:14:56.164Z,2.72
2022-07-29T01:17:32.770Z,2.67
2022-07-29T01:20:11.495Z,2.72
2022-07-29T01:23:41.673Z,2.80
2022-07-29T01:26:49.051Z,2.58
2022-07-29T01:29:35.994Z,3.33
2022-07-29T01:32:28.051Z,3.20
2022-07-29T01:35:06.617Z,2.75
2022-07-29T01:37:45.360Z,2.80
2022-07-29T01:40:24.269Z,3.13
2022-07-29T01:42:58.352Z,2.88
2022-07-29T01:45:40.824Z,2.90
2022-07-29T01:48:21.996Z,2.80
2022-07-29T01:51:00.686Z,3.15
2022-07-29T01:53:38.372Z,2.75
2022-07-29T01:56:12.324Z,2.90
2022-07-29T01:58:45.418Z,2.95
2022-07-29T02:01:18.323Z,2.33
2022-07-29T02:03:50.158Z,2.70
2022-07-29T02:06:25.436Z,2.67
2022-07-29T02:11:25.003Z,2.40
2022-07-29T02:13:59.194Z,2.83
2022-07-29T02:16:34.102Z,2.63
2022-07-29T02:19:06.710Z,2.90
2022-07-29T02:21:38.133Z,2.60
2022-07-29T02:24:09.293Z,2.80
2022-07-29T02:26:41.644Z,2.75
2022-07-29T02:29:14.046Z,2.90
2022-07-29T02:34:20.269Z,3.00
2022-07-29T02:39:21.200Z,3.10
2022-07-29T02:41:54.431Z,3.17
2022-07-29T02:44:32.597Z,2.53
2022-07-29T02:47:15.781Z,2.80
2022-07-29T02:49:57.184Z,2.83
2022-07-29T02:52:33.878Z,3.03
2022-07-29T02:55:12.205Z,3.17
2022-07-29T02:57:53.827Z,2.97
2022-07-29T03:00:29.729Z,3.03
2022-07-29T03:03:06.193Z,2.88
2022-07-29T03:05:36.310Z,2.85
2022-07-29T03:08:12.600Z,2.90
2022-07-29T03:10:46.675Z,2.38
2022-07-29T03:13:17.701Z,2.60
2022-07-29T03:15:48.140Z,3.00
2022-07-29T03:18:19.150Z,2.67
2022-07-29T03:20:48.242Z,2.72
2022-07-29T03:23:22.543Z,2.88
2022-07-29T03:25:52.746Z,2.22
2022-07-29T03:28:22.120Z,2.55
2022-07-29T03:30:51.890Z,2.20
2022-07-29T03:33:22.196Z,3.10
2022-07-29T03:35:51.189Z,3.03
2022-07-29T03:38:20.723Z,3.15
2022-07-29T03:40:56.245Z,2.65
2022-07-29T03:43:27.752Z,3.05
2022-07-29T03:45:59.157Z,3.23
2022-07-29T03:48:34.969Z,2.97
2022-07-29T03:51:04.101Z,2.88
2022-07-29T03:53:33.546Z,4.15
2022-07-29T03:56:05.110Z,3.53
2022-07-29T03:58:35.494Z,3.73
2022-07-29T04:01:04.899Z,4.93
2022-07-29T04:03:37.069Z,6.25
2022-07-29T04:06:08.677Z,3.03
2022-07-29T04:08:37.692Z,3.37
2022-07-29T04:11:07.904Z,5.45
2022-07-29T04:13:39.551Z,4.68
2022-07-29T04:16:08.776Z,4.60
2022-07-29T04:18:38.962Z,4.47
2022-07-29T04:21:07.853Z,3.75
2022-07-29T04:23:36.802Z,4.35
2022-07-29T04:26:22.982Z,3.35
2022-07-29T04:28:51.789Z,4.43
2022-07-29T04:31:25.527Z,3.28
2022-07-29T04:33:56.163Z,3.47
2022-07-29T04:36:28.526Z,3.35
2022-07-29T04:38:58.818Z,3.17
2022-07-29T04:41:33.260Z,2.85
2022-07-29T04:44:12.226Z,3.47
2022-07-29T04:46:41.656Z,2.85
2022-07-29T04:49:12.031Z,3.05
2022-07-29T04:51:40.960Z,3.33
2022-07-29T04:54:10.040Z,2.83
2022-07-29T04:56:39.052Z,3.15
2022-07-29T04:59:08.016Z,3.00
2022-07-29T05:01:37.114Z,2.60
2022-07-29T05:04:06.249Z,3.70
2022-07-29T05:06:36.712Z,3.35
2022-07-29T05:09:05.918Z,3.40
2022-07-29T05:11:34.797Z,3.47
2022-07-29T05:14:03.848Z,4.20
2022-07-29T05:16:32.795Z,3.53
2022-07-29T05:19:01.869Z,3.92
2022-07-29T05:21:30.850Z,3.83
2022-07-29T05:24:01.329Z,3.13
2022-07-29T05:26:30.356Z,3.35
2022-07-29T05:28:59.211Z,3.58
2022-07-29T05:31:28.368Z,3.50
2022-07-29T05:33:57.385Z,3.70
2022-07-29T05:36:26.233Z,3.60
2022-07-29T05:38:55.286Z,3.90
2022-07-29T05:41:26.589Z,4.07
2022-07-29T05:43:55.608Z,3.47
2022-07-29T05:46:24.552Z,2.78
2022-07-29T05:48:53.576Z,2.88
2022-07-29T05:51:22.774Z,2.90
2022-07-29T05:53:51.757Z,2.70
2022-07-29T05:56:20.694Z,3.28
2022-07-29T05:58:51.045Z,2.95
2022-07-29T06:01:20.912Z,3.90
2022-07-29T06:03:49.979Z,3.35
2022-07-29T06:06:20.076Z,3.30
2022-07-29T06:08:49.094Z,2.47
2022-07-29T06:11:18.106Z,2.90
2022-07-29T06:13:47.524Z,2.58
2022-07-29T06:16:29.811Z,2.72
2022-07-29T06:18:59.337Z,2.95
2022-07-29T06:21:28.355Z,2.97
2022-07-29T06:23:57.670Z,3.20
2022-07-29T06:26:30.274Z,3.20
2022-07-29T06:29:00.437Z,3.10
2022-07-29T06:31:30.769Z,3.40
2022-07-29T06:33:59.721Z,5.47
2022-07-29T06:36:29.698Z,3.85
2022-07-29T06:38:59.000Z,3.30
2022-07-29T06:41:28.281Z,3.17
2022-07-29T06:43:57.213Z,3.60
2022-07-29T06:46:26.210Z,3.42
2022-07-29T06:48:57.748Z,4.57
2022-07-29T06:51:28.444Z,4.47
2022-07-29T06:54:02.586Z,4.18
2022-07-29T06:56:38.354Z,4.43
2022-07-29T06:59:11.856Z,6.00
2022-07-29T07:01:43.697Z,5.38
2022-07-29T07:04:15.246Z,6.15
2022-07-29T07:06:44.975Z,4.15
2022-07-29T07:09:13.951Z,3.63
2022-07-29T07:11:42.877Z,3.72
2022-07-29T07:14:11.809Z,3.33
2022-07-29T07:16:40.764Z,3.20
2022-07-29T07:19:09.758Z,3.35
2022-07-29T07:21:40.108Z,3.25
2022-07-29T07:24:09.557Z,4.25
2022-07-29T07:26:40.377Z,2.95
2022-07-29T07:29:09.277Z,3.58
2022-07-29T07:31:39.667Z,3.00
2022-07-29T07:34:08.555Z,3.33
2022-07-29T07:36:38.900Z,2.95
2022-07-29T07:39:07.993Z,4.45
2022-07-29T07:41:37.131Z,3.00
2022-07-29T07:44:07.021Z,2.88
2022-07-29T07:46:35.922Z,2.80
2022-07-29T07:49:07.414Z,2.92
2022-07-29T07:51:36.374Z,3.20
2022-07-29T07:54:06.869Z,2.58
2022-07-29T07:56:36.206Z,3.13
2022-07-29T07:59:05.326Z,3.13
2022-07-29T08:01:47.830Z,6.75
2022-07-29T08:04:27.511Z,7.30
2022-07-29T08:06:57.826Z,7.32
2022-07-29T08:09:30.776Z,6.10
2022-07-29T08:12:03.337Z,4.40
2022-07-29T08:14:32.521Z,6.93
2022-07-29T08:17:02.409Z,7.00
2022-07-29T08:19:31.405Z,7.03
2022-07-29T08:22:00.392Z,5.32
2022-07-29T08:24:48.189Z,4.57
2022-07-29T08:27:41.791Z,3.60
2022-07-29T08:30:07.614Z,3.10
2022-07-29T08:32:53.238Z,3.20
2022-07-29T08:35:24.127Z,2.67
2022-07-29T08:37:53.427Z,3.17
2022-07-29T08:40:30.775Z,3.17
2022-07-29T08:43:08.379Z,3.47
2022-07-29T08:45:47.448Z,3.03
2022-07-29T08:48:20.031Z,3.08
2022-07-29T08:50:54.426Z,3.30
2022-07-29T08:53:27.383Z,3.70
2022-07-29T08:55:59.571Z,3.50
2022-07-29T08:58:36.822Z,4.65
2022-07-29T09:01:12.222Z,3.65
2022-07-29T09:03:43.510Z,4.78
2022-07-29T09:06:15.850Z,4.47
2022-07-29T09:08:45.794Z,3.70
2022-07-29T09:11:16.858Z,3.30
2022-07-29T09:13:45.950Z,3.40
2022-07-29T09:16:31.673Z,3.20
2022-07-29T09:19:26.826Z,2.88
2022-07-29T09:22:02.967Z,3.20
2022-07-29T09:24:43.236Z,4.43
2022-07-29T09:27:23.672Z,3.63
2022-07-29T09:30:01.319Z,3.53
2022-07-29T09:32:30.901Z,4.15
2022-07-29T09:35:21.222Z,5.40
2022-07-29T09:37:51.096Z,4.40
2022-07-29T09:40:21.924Z,4.15
2022-07-29T09:42:53.928Z,5.32
2022-07-29T09:45:31.360Z,4.95
2022-07-29T09:48:03.927Z,4.28
2022-07-29T09:50:40.958Z,4.72
2022-07-29T09:53:11.394Z,3.38
2022-07-29T09:55:51.866Z,4.18
2022-07-29T09:58:24.448Z,3.47
2022-07-29T10:00:55.775Z,4.18
2022-07-29T10:03:26.930Z,3.30
2022-07-29T10:06:10.794Z,3.40
2022-07-29T10:08:40.552Z,4.22
2022-07-29T10:11:15.840Z,4.30
2022-07-29T10:13:48.823Z,3.50
2022-07-29T10:16:19.060Z,3.05
2022-07-29T10:18:48.293Z,3.97
2022-07-29T10:21:35.600Z,3.90
2022-07-29T10:24:14.790Z,2.75
2022-07-29T10:26:47.062Z,3.33
2022-07-29T10:29:17.307Z,3.55
2022-07-29T10:31:59.745Z,3.55
2022-07-29T10:34:48.747Z,3.65
2022-07-29T10:37:35.382Z,5.25
2022-07-29T10:40:37.534Z,3.60
2022-07-29T10:43:22.610Z,4.47
2022-07-29T10:48:28.893Z,3.80
2022-07-29T10:51:01.516Z,3.30
2022-07-29T10:53:51.046Z,2.90
2022-07-29T10:56:28.227Z,3.28
2022-07-29T10:59:32.402Z,3.17
2022-07-29T11:02:46.764Z,3.03
2022-07-29T11:05:20.191Z,3.45
2022-07-29T11:08:28.208Z,3.17
2022-07-29T11:11:33.100Z,3.30
2022-07-29T11:14:04.367Z,2.80
2022-07-29T11:17:06.073Z,3.17
2022-07-29T11:19:44.781Z,3.80
2022-07-29T11:22:34.844Z,3.45
2022-07-29T11:25:17.895Z,3.42
2022-07-29T11:27:47.503Z,3.28
2022-07-29T11:30:17.575Z,3.38
2022-07-29T11:32:48.621Z,3.30
2022-07-29T11:35:37.230Z,2.75
2022-07-29T11:38:28.352Z,2.70
2022-07-29T11:41:25.183Z,2.95
2022-07-29T11:43:55.919Z,3.22
2022-07-29T11:46:46.183Z,4.25
2022-07-29T11:49:21.872Z,3.20
2022-07-29T11:51:55.676Z,3.00
2022-07-29T11:54:28.174Z,3.10
2022-07-29T11:56:57.457Z,3.22
2022-07-29T11:59:33.121Z,3.05
2022-07-29T12:02:33.355Z,3.10
2022-07-29T12:04:53.960Z,2.90
2022-07-29T12:07:34.830Z,3.40
2022-07-29T12:10:06.309Z,3.03
2022-07-29T12:12:35.919Z,3.22
2022-07-29T12:15:18.365Z,3.35
2022-07-29T12:17:50.258Z,3.25
2022-07-29T12:20:26.781Z,2.97
2022-07-29T12:22:58.797Z,3.00
2022-07-29T12:25:35.193Z,3.25
2022-07-29T12:28:06.643Z,3.30
2022-07-29T12:30:42.084Z,3.47
2022-07-29T12:33:20.371Z,3.38
2022-07-29T12:36:06.232Z,3.78
2022-07-29T12:38:39.712Z,3.45
2022-07-29T12:41:09.493Z,3.53
2022-07-29T12:43:38.633Z,3.20
2022-07-29T12:46:15.630Z,4.22
2022-07-29T12:48:47.344Z,3.35
2022-07-29T12:51:17.825Z,3.65
2022-07-29T12:54:07.843Z,3.90
2022-07-29T12:56:45.149Z,4.30
2022-07-29T12:59:16.410Z,3.40
2022-07-29T13:01:47.978Z,3.53
2022-07-29T13:04:27.990Z,3.80
2022-07-29T13:07:06.456Z,3.47
2022-07-29T13:09:44.272Z,3.55
2022-07-29T13:12:15.077Z,2.90
2022-07-29T13:14:46.340Z,3.22
2022-07-29T13:17:17.010Z,3.38
2022-07-29T13:19:48.299Z,3.58
2022-07-29T13:22:20.387Z,3.45
2022-07-29T13:24:53.724Z,3.30
2022-07-29T13:27:25.321Z,2.88
2022-07-29T13:29:57.499Z,3.38
2022-07-29T13:32:28.541Z,3.40
2022-07-29T13:34:58.976Z,3.17
2022-07-29T13:37:30.689Z,2.90
2022-07-29T13:40:01.424Z,3.58
2022-07-29T13:42:30.725Z,2.80
2022-07-29T13:45:00.230Z,3.42
2022-07-29T13:47:32.206Z,3.42
2022-07-29T13:50:02.598Z,3.58
2022-07-29T13:52:35.479Z,3.35
2022-07-29T13:55:07.221Z,3.97
2022-07-29T13:57:36.469Z,3.60
2022-07-29T14:00:06.668Z,3.50
2022-07-29T14:02:35.828Z,3.53
2022-07-29T14:05:08.311Z,3.47
2022-07-29T14:07:38.046Z,3.47
2022-07-29T14:10:09.444Z,2.35
2022-07-29T14:12:38.411Z,2.58
2022-07-29T14:15:08.583Z,2.60
2022-07-29T14:17:37.498Z,2.63
2022-07-29T14:20:08.042Z,2.80
2022-07-29T14:22:41.825Z,2.70
2022-07-29T14:25:14.885Z,2.92
2022-07-29T14:27:45.321Z,2.85
2022-07-29T14:30:15.443Z,2.83
2022-07-29T14:32:44.341Z,3.28
2022-07-29T14:35:13.377Z,2.50
2022-07-29T14:37:42.319Z,2.90
2022-07-29T14:40:13.555Z,2.47
2022-07-29T14:42:42.664Z,3.03
2022-07-29T14:45:12.523Z,3.42
2022-07-29T14:47:41.588Z,2.78
2022-07-29T14:50:11.994Z,2.50
2022-07-29T14:52:40.965Z,2.72
2022-07-29T14:55:19.899Z,3.33
2022-07-29T14:57:50.892Z,3.58
2022-07-29T15:00:21.626Z,3.50
2022-07-29T15:03:02.040Z,5.15
2022-07-29T15:05:32.032Z,3.92
2022-07-29T15:08:01.515Z,3.90
2022-07-29T15:10:32.082Z,4.57
2022-07-29T15:13:01.072Z,4.45
2022-07-29T15:15:30.479Z,4.13
2022-07-29T15:17:59.426Z,4.10
2022-07-29T15:20:28.621Z,4.10
2022-07-29T15:22:58.178Z,5.35
2022-07-29T15:25:28.203Z,6.13
2022-07-29T15:28:01.742Z,5.68
2022-07-29T15:30:34.391Z,5.15
2022-07-29T15:33:09.074Z,5.18
2022-07-29T15:35:40.505Z,5.28
2022-07-29T15:38:10.447Z,5.43
2022-07-29T15:40:42.130Z,4.80
2022-07-29T15:43:12.706Z,5.60
2022-07-29T15:46:05.295Z,5.20
2022-07-29T15:48:34.407Z,5.57
2022-07-29T15:51:03.290Z,4.90
2022-07-29T15:53:32.497Z,5.05
2022-07-29T15:58:34.765Z,6.00
2022-07-29T16:01:03.841Z,5.22
2022-07-29T16:03:33.500Z,5.60
2022-07-29T16:06:02.893Z,4.70
2022-07-29T16:08:32.125Z,6.07
2022-07-29T16:11:01.125Z,5.68
2022-07-29T16:13:30.335Z,5.43
2022-07-29T16:16:01.984Z,5.45
2022-07-29T16:18:32.370Z,5.60
2022-07-29T16:21:01.762Z,6.90
2022-07-29T16:23:30.619Z,7.32
2022-07-29T16:26:01.095Z,7.60
2022-07-29T16:28:31.387Z,10.77
2022-07-29T16:31:01.766Z,13.73
2022-07-29T16:33:54.220Z,13.80
2022-07-29T16:36:21.510Z,8.85
2022-07-29T16:38:51.011Z,13.32
2022-07-29T16:41:20.085Z,9.32
2022-07-29T16:43:53.354Z,6.18
2022-07-29T16:46:24.299Z,8.02
2022-07-29T16:48:55.769Z,6.78
2022-07-29T16:51:26.001Z,7.00
2022-07-29T16:53:54.912Z,5.80
2022-07-29T16:56:24.892Z,5.80
2022-07-29T16:58:54.245Z,5.53
2022-07-29T17:01:26.899Z,5.57
2022-07-29T17:04:10.462Z,5.30
2022-07-29T17:06:41.350Z,5.60
2022-07-29T17:09:14.927Z,5.10
2022-07-29T17:11:53.111Z,5.15
2022-07-29T17:14:41.373Z,5.78
2022-07-29T17:17:39.329Z,4.80
2022-07-29T17:20:17.592Z,5.88
2022-07-29T17:22:46.875Z,5.32
2022-07-29T17:25:20.335Z,5.63
2022-07-29T17:27:50.759Z,5.90
2022-07-29T17:30:20.265Z,5.88
2022-07-29T17:32:54.788Z,5.22
2022-07-29T17:35:42.448Z,4.72
2022-07-29T17:38:15.329Z,4.80
2022-07-29T17:40:56.910Z,5.50
2022-07-29T17:43:31.185Z,4.82
2022-07-29T17:46:03.805Z,4.93
2022-07-29T17:51:20.811Z,4.63
2022-07-29T17:56:29.703Z,4.30
2022-07-29T17:59:12.068Z,4.90
2022-07-29T18:04:12.427Z,6.13
2022-07-29T18:06:41.455Z,4.25
2022-07-29T18:09:10.728Z,5.22
2022-07-29T18:11:39.596Z,6.05
2022-07-29T18:14:13.751Z,5.80
2022-07-29T18:16:53.284Z,5.30
2022-07-29T18:19:37.339Z,7.63
2022-07-29T18:22:07.434Z,6.38
2022-07-29T18:24:42.717Z,6.47
2022-07-29T18:27:24.460Z,8.35
2022-07-29T18:30:07.211Z,7.13
2022-07-29T18:32:37.858Z,7.65
2022-07-29T18:35:09.455Z,8.52
2022-07-29T18:38:00.814Z,8.02
2022-07-29T18:40:28.177Z,7.60
2022-07-29T18:42:58.832Z,8.05
2022-07-29T18:45:28.254Z,8.20
2022-07-29T18:48:04.653Z,8.27
2022-07-29T18:50:35.202Z,8.85
2022-07-29T18:53:05.747Z,7.90
2022-07-29T18:55:34.693Z,8.60
2022-07-29T18:58:03.735Z,7.95
2022-07-29T19:00:35.261Z,8.40
2022-07-29T19:03:04.982Z,8.20
2022-07-29T19:05:38.061Z,8.45
2022-07-29T19:08:07.669Z,8.68
2022-07-29T19:10:46.645Z,7.85
2022-07-29T19:13:16.167Z,10.13
2022-07-29T19:15:47.675Z,7.88
2022-07-29T19:18:16.912Z,7.50
2022-07-29T19:20:47.329Z,6.90
2022-07-29T19:23:17.247Z,8.05
2022-07-29T19:25:53.726Z,8.02
2022-07-29T19:28:49.758Z,8.10
2022-07-29T19:32:01.037Z,9.52
2022-07-29T19:42:48.149Z,8.65
2022-07-29T19:45:17.123Z,7.15
2022-07-29T19:47:47.868Z,7.25
2022-07-29T19:50:17.523Z,6.97
2022-07-29T19:52:47.585Z,7.35
2022-07-29T19:55:18.772Z,6.53
2022-07-29T19:57:48.608Z,7.82
2022-07-29T20:00:21.098Z,7.03
2022-07-29T20:02:50.650Z,7.68
2022-07-29T20:05:19.765Z,7.45
2022-07-29T20:07:51.287Z,6.28
2022-07-29T20:10:21.914Z,5.97
2022-07-29T20:12:51.267Z,5.88
2022-07-29T20:15:22.827Z,7.15
2022-07-29T20:17:57.385Z,7.13
2022-07-29T20:20:29.813Z,5.53
2022-07-29T20:25:33.292Z,6.60
2022-07-29T20:28:03.363Z,7.75
2022-07-29T20:30:32.746Z,8.13
2022-07-29T20:33:01.835Z,9.35
2022-07-29T20:35:30.837Z,7.07
2022-07-29T20:38:00.424Z,6.40
2022-07-29T20:40:30.915Z,6.55
2022-07-29T20:42:59.938Z,6.80
2022-07-29T20:45:30.779Z,6.50
2022-07-29T20:48:00.031Z,6.15
2022-07-29T20:50:29.342Z,9.32
2022-07-29T20:52:58.368Z,5.50
2022-07-29T20:55:27.414Z,5.57
2022-07-29T20:58:02.380Z,5.60
2022-07-29T21:00:31.310Z,8.02
2022-07-29T21:03:01.250Z,7.47
2022-07-29T21:05:30.163Z,11.00
2022-07-29T21:07:59.587Z,10.45
2022-07-29T21:10:29.411Z,6.05
2022-07-29T21:12:59.604Z,10.68
2022-07-29T21:15:29.784Z,10.25
2022-07-29T21:18:02.875Z,7.13
2022-07-29T21:20:32.150Z,6.60
2022-07-29T21:23:02.958Z,6.88
2022-07-29T21:25:32.158Z,9.52
2022-07-29T21:28:19.990Z,9.30
2022-07-29T21:30:48.918Z,5.10
2022-07-29T21:33:17.859Z,6.40
2022-07-29T21:36:15.067Z,9.25
2022-07-29T21:38:36.575Z,8.70
2022-07-29T21:41:07.233Z,9.68
2022-07-29T21:43:37.608Z,8.95
2022-07-29T21:46:11.204Z,8.68
2022-07-29T21:48:44.382Z,9.07
2022-07-29T21:51:13.762Z,7.10
2022-07-29T21:53:42.835Z,5.57
2022-07-29T21:56:14.580Z,8.93
2022-07-29T21:58:45.814Z,6.63
2022-07-29T22:01:14.969Z,10.02
2022-07-29T22:03:44.133Z,9.30
2022-07-29T22:06:17.305Z,9.00
2022-07-29T22:08:48.086Z,9.82
2022-07-29T22:11:17.161Z,8.77
2022-07-29T22:13:50.521Z,10.30
2022-07-29T22:16:19.586Z,9.57
2022-07-29T22:18:48.877Z,9.30
2022-07-29T22:21:18.708Z,7.68
2022-07-29T22:23:47.757Z,9.25
2022-07-29T22:26:16.995Z,9.40
2022-07-29T22:28:46.308Z,8.50
2022-07-29T22:31:20.749Z,8.20
2022-07-29T22:33:51.790Z,8.75
2022-07-29T22:36:20.829Z,7.05
2022-07-29T22:38:52.237Z,8.80
2022-07-29T22:41:21.349Z,8.30
2022-07-29T22:43:52.845Z,8.23
2022-07-29T22:46:24.109Z,7.85
2022-07-29T22:48:53.345Z,7.90
2022-07-29T22:51:24.270Z,8.45
2022-07-29T22:53:54.008Z,8.25
2022-07-29T22:56:23.125Z,7.93
2022-07-29T22:58:53.301Z,8.75
2022-07-29T23:01:37.513Z,7.82
2022-07-29T23:04:10.415Z,8.15
2022-07-29T23:06:39.343Z,7.90
2022-07-29T23:09:08.233Z,7.20
2022-07-29T23:11:37.267Z,7.05
2022-07-29T23:14:06.626Z,7.72
2022-07-29T23:16:39.925Z,8.18
2022-07-29T23:19:09.041Z,8.32
2022-07-29T23:21:40.910Z,7.20
2022-07-29T23:24:12.626Z,8.18
2022-07-29T23:26:44.110Z,8.40
2022-07-29T23:29:13.453Z,8.00
2022-07-29T23:31:48.320Z,7.63
2022-07-29T23:34:17.509Z,7.88
2022-07-29T23:36:46.425Z,7.85
2022-07-29T23:39:15.561Z,7.80
2022-07-29T23:41:44.581Z,7.80
2022-07-29T23:44:13.454Z,7.72
2022-07-29T23:46:44.505Z,7.55
2022-07-29T23:49:14.087Z,7.60
2022-07-29T23:51:45.684Z,7.82
2022-07-29T23:54:14.906Z,7.50
2022-07-29T23:56:44.212Z,7.63
2022-07-29T23:59:15.619Z,6.77
